Saint Hilaire, Minnesota
Current Conditions -  °F | °C
As of 3:55 AM on Saturday 25 Oct 2014 (Local Time) from KTVF Reporting Station
Clear Clear  
Wind Chill:   Ceiling: Unl
Heat Index:   Visibility: 10mi
Dew Point: -1°   Wind: 8mph
Humidity: 61%   Direction: 270°W
Pressure: 29.95"   Gusts: NA
Location:  48.01°N, 96.21°W
Report Text: KTVF 250855Z AUTO 27007KT 10SM CLR 06/M01 A2995 RMK AO1 52020
Loading
Personal Weather Stations






























Interactive Weather Map
Tropical Storm Tracking
New forecast layout! Learn more

10-Day Weather Forecast

Advertisements
Track Severe Weather on mobile